Time;durP1;ratioP1;P1;durP2;ratioP2;P2;SDS_P1;SDS_P2;PMS_P1;PMS_P2;Temp;Humidity;BMP_temperature;BMP_pressure;BME280_temperature;BME280_humidity;BME280_pressure;Samples;Min_cycle;Max_cycle;Signal;HPM_P1;HPM_P2
2020/12/03 00:01:00;;;;;;;;;;;;;;;-2.54;91.12;97650.09;5004978;28;20117;-60
2020/12/03 00:03:27;;;;;;;35.15;14.90;;;;;;;-2.58;91.31;97649.03;5004045;28;19925;-63
2020/12/03 00:06:07;;;;;;;25.50;11.20;;;;;;;-2.53;91.44;97649.00;5004452;28;20631;-61
2020/12/03 00:08:37;;;;;;;26.38;11.80;;;;;;;-2.67;90.98;97628.94;5006611;28;20038;-60
2020/12/03 00:11:02;;;;;;;27.63;11.07;;;;;;;-2.85;90.96;97583.44;5004995;28;20104;-61
2020/12/03 00:13:31;;;;;;;29.88;13.82;;;;;;;-2.45;90.80;97653.09;5006197;28;20069;-61
2020/12/03 00:15:58;;;;;;;32.28;14.10;;;;;;;-2.76;90.33;97608.91;5004573;28;20449;-61
2020/12/03 00:18:26;;;;;;;34.83;15.27;;;;;;;-2.54;90.68;97644.69;5003808;28;20132;-61
2020/12/03 00:20:52;;;;;;;42.00;13.40;;;;;;;-2.52;91.01;97652.53;5004218;28;20116;-61
2020/12/03 00:23:17;;;;;;;31.52;12.88;;;;;;;-3.53;91.13;97497.28;5004266;28;20030;-61
2020/12/03 00:25:44;;;;;;;26.52;11.48;;;;;;;-2.58;91.21;97665.31;5005650;28;20037;-61
2020/12/03 00:28:10;;;;;;;36.42;13.73;;;;;;;-3.75;91.87;97491.31;5004073;28;20405;-61
2020/12/03 00:30:35;;;;;;;25.42;11.07;;;;;;;-2.97;91.65;97649.81;5005717;28;20036;-61
2020/12/03 00:33:00;;;;;;;48.88;15.32;;;;;;;-2.76;92.07;97663.13;5005444;28;20435;-61
2020/12/03 00:35:26;;;;;;;63.63;18.30;;;;;;;-2.66;91.69;97663.13;5005443;28;20040;-61
2020/12/03 00:37:53;;;;;;;55.97;17.23;;;;;;;-4.31;90.96;97394.91;5004029;28;20042;-61
2020/12/03 00:40:20;;;;;;;36.83;15.07;;;;;;;-3.27;91.50;97602.63;5003879;28;20049;-61
2020/12/03 00:42:46;;;;;;;26.50;11.13;;;;;;;-2.60;91.07;97667.47;5005312;28;20036;-61
2020/12/03 00:45:14;;;;;;;25.83;11.63;;;;;;;-2.74;89.94;97633.03;5003737;28;20029;-63
2020/12/03 00:47:40;;;;;;;29.60;13.25;;;;;;;-3.05;88.82;97599.66;5005011;28;20184;-61
2020/12/03 00:50:09;;;;;;;42.47;19.42;;;;;;;-2.51;88.46;97660.41;5003433;28;20121;-61
2020/12/03 00:52:35;;;;;;;39.72;17.48;;;;;;;-2.84;87.69;97606.72;5005273;28;20038;-62
2020/12/03 00:55:00;;;;;;;45.85;19.33;;;;;;;-2.60;87.83;97659.31;5003626;28;20304;-60
2020/12/03 00:57:26;;;;;;;42.22;17.92;;;;;;;-2.64;87.82;97660.94;5005119;28;20034;-60
2020/12/03 00:59:52;;;;;;;90.03;31.33;;;;;;;-2.71;88.56;97655.00;5003757;28;20420;-61
2020/12/03 01:02:17;;;;;;;196.40;62.50;;;;;;;-3.04;88.69;97598.59;5003358;28;20067;-63
2020/12/03 01:04:43;;;;;;;65.45;29.63;;;;;;;-2.66;89.12;97657.72;5005428;28;20048;-61
2020/12/03 01:07:09;;;;;;;62.65;27.35;;;;;;;-2.53;89.21;97651.72;5003383;28;20386;-61
2020/12/03 01:09:39;;;;;;;60.75;26.17;;;;;;;-2.52;89.33;97669.63;5003721;28;20046;-61
2020/12/03 01:12:06;;;;;;;58.08;27.92;;;;;;;-2.43;88.75;97645.47;4999761;28;20520;-61
2020/12/03 01:14:34;;;;;;;77.60;23.73;;;;;;;-2.43;88.33;97646.28;4983934;28;20110;-61
2020/12/03 01:17:02;;;;;;;120.50;33.42;;;;;;;-2.41;87.57;97649.56;4985109;28;20042;-61
2020/12/03 01:19:27;;;;;;;108.47;34.20;;;;;;;-2.61;88.25;97649.56;4984839;28;20050;-62
2020/12/03 01:21:52;;;;;;;73.72;24.55;;;;;;;-2.64;88.51;97650.09;4985226;28;20517;-61
2020/12/03 01:24:18;;;;;;;49.42;18.38;;;;;;;-3.20;88.09;97553.63;5003623;28;20112;-61
2020/12/03 01:26:43;;;;;;;33.88;14.23;;;;;;;-2.56;87.98;97641.41;5003609;28;20037;-60
2020/12/03 01:29:09;;;;;;;36.03;16.08;;;;;;;-2.72;88.74;97610.00;5005193;28;20052;-62
2020/12/03 01:31:34;;;;;;;38.97;17.00;;;;;;;-2.66;88.75;97636.00;5003284;28;20025;-62
2020/12/03 01:34:00;;;;;;;50.58;21.50;;;;;;;-2.67;89.37;97626.25;5005143;28;20546;-62
2020/12/03 01:36:25;;;;;;;34.95;15.30;;;;;;;-3.27;89.33;97543.06;5004842;28;20100;-60
2020/12/03 01:38:51;;;;;;;30.98;13.27;;;;;;;-2.73;89.78;97640.06;5003451;28;20049;-60
2020/12/03 01:41:17;;;;;;;26.55;12.20;;;;;;;-2.79;89.70;97630.31;5004591;28;20034;-60
2020/12/03 01:43:44;;;;;;;35.80;14.30;;;;;;;-2.75;89.65;97645.75;5004905;28;20068;-61
2020/12/03 01:46:09;;;;;;;36.38;16.30;;;;;;;-2.69;88.98;97644.69;5004554;28;20502;-61
2020/12/03 01:48:47;;;;;;;40.85;15.80;;;;;;;-2.77;88.29;97644.41;5003143;28;20038;-61
2020/12/03 01:51:22;;;;;;;37.42;16.10;;;;;;;-2.84;88.36;97643.84;5003015;28;20543;-61
2020/12/03 01:53:50;;;;;;;29.63;14.10;;;;;;;-3.22;88.09;97577.44;5003082;28;20169;-60
2020/12/03 01:56:31;;;;;;;35.45;15.55;;;;;;;-12.70;86.68;96040.25;5002824;28;20037;-61
2020/12/03 01:58:58;;;;;;;32.42;14.32;;;;;;;-2.85;87.55;97643.06;5003266;28;20045;-61
2020/12/03 02:01:23;;;;;;;39.90;15.65;;;;;;;-2.99;86.96;97582.34;5002522;28;20033;-61
2020/12/03 02:03:49;;;;;;;42.78;16.60;;;;;;;-2.72;86.74;97642.53;5002960;28;20420;-60
2020/12/03 02:06:28;;;;;;;35.92;14.25;;;;;;;-2.71;86.92;97627.88;5003187;28;20124;-61
2020/12/03 02:08:53;;;;;;;27.55;11.63;;;;;;;-3.31;87.75;97543.88;5004683;28;20042;-60
2020/12/03 02:11:20;;;;;;;25.00;11.73;;;;;;;-3.26;87.77;97554.72;5004470;28;20034;-60
2020/12/03 02:13:56;;;;;;;27.33;11.30;;;;;;;-2.90;87.58;97624.09;5004477;28;20049;-60
2020/12/03 02:16:24;;;;;;;25.15;11.07;;;;;;;-3.00;87.54;97626.78;5004127;28;20662;-60
2020/12/03 02:18:50;;;;;;;28.27;12.10;;;;;;;-3.38;88.20;97611.00;5002571;28;20058;-63
2020/12/03 02:21:16;;;;;;;26.48;11.65;;;;;;;-3.04;88.23;97601.31;5004004;28;20034;-60
2020/12/03 02:23:42;;;;;;;29.92;13.18;;;;;;;-3.33;88.30;97543.31;5003992;28;20045;-60
2020/12/03 02:26:08;;;;;;;29.50;12.05;;;;;;;-2.86;88.50;97619.72;5005261;28;20171;-63
2020/12/03 02:28:34;;;;;;;31.65;13.93;;;;;;;-2.73;88.05;97624.63;5007905;28;20164;-62
2020/12/03 02:30:59;;;;;;;33.75;12.75;;;;;;;-2.65;87.41;97621.38;5007700;28;20538;-60
2020/12/03 02:33:25;;;;;;;32.33;14.02;;;;;;;-2.66;87.97;97616.22;5002921;28;20046;-60
2020/12/03 02:35:50;;;;;;;30.05;14.02;;;;;;;-3.23;90.22;97630.84;4987841;28;20030;-61
2020/12/03 02:38:16;;;;;;;31.73;13.75;;;;;;;-3.02;90.14;97620.84;5002852;28;20045;-60
2020/12/03 02:40:41;;;;;;;30.27;13.35;;;;;;;-2.99;89.67;97609.47;4987850;28;20421;-60
2020/12/03 02:43:07;;;;;;;38.40;14.82;;;;;;;-2.96;89.73;97606.19;4988194;28;20069;-62
2020/12/03 02:45:32;;;;;;;36.42;15.10;;;;;;;-3.00;89.64;97613.22;4986385;28;20124;-58
2020/12/03 02:47:58;;;;;;;39.15;16.55;;;;;;;-3.05;89.63;97594.25;5002782;28;20042;-62
2020/12/03 02:50:23;;;;;;;47.38;19.05;;;;;;;-3.27;90.11;97561.19;5003034;28;20034;-59
2020/12/03 02:52:48;;;;;;;67.97;24.13;;;;;;;-3.47;89.34;97515.16;4988071;28;20041;-59
2020/12/03 02:55:15;;;;;;;58.25;22.95;;;;;;;-2.95;89.77;97599.69;4988119;28;20041;-59
2020/12/03 02:57:40;;;;;;;96.55;35.97;;;;;;;-2.82;88.89;97610.00;4987857;28;20045;-61
2020/12/03 03:00:06;;;;;;;50.88;20.80;;;;;;;-2.97;89.02;97596.44;4987662;28;20034;-60
2020/12/03 03:02:31;;;;;;;95.18;36.65;;;;;;;-2.95;89.86;97594.28;5002494;28;20027;-60
2020/12/03 03:04:57;;;;;;;47.80;18.98;;;;;;;-2.94;90.03;97585.03;5002374;28;20409;-61
2020/12/03 03:07:22;;;;;;;58.85;21.85;;;;;;;-3.03;89.45;97592.09;4985811;28;20504;-59
2020/12/03 03:09:48;;;;;;;79.80;28.73;;;;;;;-3.48;89.69;97535.19;4986143;28;20141;-59
2020/12/03 03:12:13;;;;;;;40.00;16.85;;;;;;;-4.05;88.85;97426.34;4987383;28;20062;-61
2020/12/03 03:14:39;;;;;;;32.88;12.25;;;;;;;-2.98;89.37;97592.09;5002401;28;20070;-61
2020/12/03 03:17:05;;;;;;;22.55;10.60;;;;;;;-3.22;88.67;97575.56;4985786;28;20038;-60
2020/12/03 03:19:30;;;;;;;24.77;10.65;;;;;;;-3.23;88.80;97603.75;5001879;28;20054;-60
2020/12/03 03:21:56;;;;;;;19.92;9.13;;;;;;;-3.32;89.18;97596.41;4987148;28;20037;-61
2020/12/03 03:24:21;;;;;;;18.45;9.00;;;;;;;-3.67;88.60;97525.97;5005131;28;20038;-60
2020/12/03 03:26:46;;;;;;;24.10;9.20;;;;;;;-3.71;88.40;97541.09;5006985;28;20038;-60
2020/12/03 03:29:12;;;;;;;23.35;10.55;;;;;;;-3.31;88.76;97589.91;5005335;28;20500;-62
2020/12/03 03:31:38;;;;;;;31.60;13.00;;;;;;;-3.59;88.53;97523.53;5006837;28;20026;-60
2020/12/03 03:34:04;;;;;;;39.25;15.38;;;;;;;-3.29;88.77;97598.59;5005071;28;20512;-60
2020/12/03 03:36:30;;;;;;;41.83;14.85;;;;;;;-3.25;89.39;97605.91;5004948;28;20173;-61
2020/12/03 03:38:56;;;;;;;35.53;13.88;;;;;;;-3.17;88.62;97610.78;5005026;28;20037;-61
2020/12/03 03:41:21;;;;;;;35.00;13.43;;;;;;;-3.20;88.59;97608.63;5006077;28;20041;-59
2020/12/03 03:43:47;;;;;;;32.58;12.93;;;;;;;-3.14;88.55;97606.72;5005063;28;20029;-60
2020/12/03 03:46:13;;;;;;;31.80;13.52;;;;;;;-4.00;88.15;97483.16;5006329;28;20560;-60
2020/12/03 03:48:38;;;;;;;27.10;11.88;;;;;;;-3.29;88.69;97598.59;5004749;28;20127;-61
2020/12/03 03:51:04;;;;;;;26.35;12.25;;;;;;;-3.16;88.99;97608.88;5006139;28;20106;-60
2020/12/03 03:53:30;;;;;;;33.42;13.40;;;;;;;-3.09;87.94;97625.69;5006498;28;20034;-60
2020/12/03 03:55:55;;;;;;;26.73;13.55;;;;;;;-3.18;87.70;97613.78;5004359;28;20076;-61
2020/12/03 03:58:21;;;;;;;30.30;13.32;;;;;;;-3.13;87.84;97635.44;5006195;28;20084;-60
2020/12/03 04:00:47;;;;;;;28.08;12.48;;;;;;;-3.60;88.15;97542.75;5006634;28;20037;-60
2020/12/03 04:03:16;;;;;;;36.78;15.23;;;;;;;-4.79;86.98;97324.00;5006113;28;20038;-60
2020/12/03 04:05:45;;;;;;;42.30;19.48;;;;;;;-3.49;87.71;97544.38;5004365;28;20021;-61
2020/12/03 04:08:12;;;;;;;50.50;20.45;;;;;;;-3.13;87.72;97613.78;5006021;28;20052;-59
2020/12/03 04:10:37;;;;;;;39.58;20.27;;;;;;;-2.95;86.90;97621.38;5004445;28;20535;-60
2020/12/03 04:13:03;;;;;;;37.33;17.73;;;;;;;-4.04;87.12;97458.53;5006340;28;20042;-60
2020/12/03 04:15:29;;;;;;;35.78;16.90;;;;;;;-2.99;86.48;97617.59;5005767;28;20084;-60
2020/12/03 04:17:54;;;;;;;42.33;19.65;;;;;;;-2.83;85.50;97623.81;5005466;28;20045;-61
2020/12/03 04:20:20;;;;;;;43.33;17.92;;;;;;;-2.81;85.05;97616.25;5004241;28;20045;-60
2020/12/03 04:22:46;;;;;;;39.92;17.58;;;;;;;-3.47;87.08;97612.63;5004368;28;20036;-60
2020/12/03 04:25:12;;;;;;;36.78;15.95;;;;;;;-4.29;89.54;97554.97;5005753;28;20041;-61
2020/12/03 04:27:38;;;;;;;39.03;15.98;;;;;;;-4.65;90.81;97481.81;5005814;28;20559;-61
2020/12/03 04:30:09;;;;;;;41.13;21.42;;;;;;;-4.97;90.36;97419.00;5005950;28;20038;-61
2020/12/03 04:32:35;;;;;;;54.35;25.33;;;;;;;-3.87;88.95;97553.00;5004058;28;20045;-61
2020/12/03 04:35:00;;;;;;;49.22;23.15;;;;;;;-3.33;87.37;97628.09;5004118;28;20046;-60
2020/12/03 04:37:26;;;;;;;58.55;27.05;;;;;;;-3.46;87.83;97625.06;5005248;28;20033;-63
2020/12/03 04:39:52;;;;;;;45.50;18.98;;;;;;;-3.61;88.43;97625.03;5005765;28;20127;-61
2020/12/03 04:42:27;;;;;;;39.63;16.70;;;;;;;-4.36;88.01;97489.53;5005056;28;20036;-61
2020/12/03 04:44:59;;;;;;;32.13;15.68;;;;;;;-3.50;88.24;97624.00;5005274;28;20120;-60
2020/12/03 04:47:39;;;;;;;35.13;16.65;;;;;;;-3.41;88.12;97625.09;5005193;28;20044;-61
2020/12/03 04:50:26;;;;;;;44.78;21.15;;;;;;;-3.36;88.00;97622.38;5003433;28;20041;-60
2020/12/03 04:53:08;;;;;;;55.25;20.98;;;;;;;-4.04;87.19;97536.13;5003758;28;20048;-63
2020/12/03 04:55:46;;;;;;;57.50;22.93;;;;;;;-3.29;87.52;97636.50;5003747;28;20464;-61
2020/12/03 04:58:34;;;;;;;59.58;25.23;;;;;;;-3.45;87.15;97621.28;5003591;28;20130;-60
2020/12/03 05:01:20;;;;;;;52.20;22.85;;;;;;;-3.39;87.35;97625.63;5004892;28;20038;-61
2020/12/03 05:03:51;;;;;;;38.85;19.73;;;;;;;-3.46;87.32;97635.91;5003626;28;20034;-61
2020/12/03 05:06:30;;;;;;;50.25;24.08;;;;;;;-3.63;87.45;97609.06;5003402;28;20045;-61
2020/12/03 05:09:06;;;;;;;50.58;25.05;;;;;;;-3.94;87.44;97579.47;5003548;28;20033;-61
2020/12/03 05:11:49;;;;;;;67.18;31.02;;;;;;;-3.60;87.97;97618.53;5003404;28;20041;-60
2020/12/03 05:14:35;;;;;;;70.90;31.70;;;;;;;-3.52;87.96;97626.13;5005246;28;20497;-60
2020/12/03 05:17:21;;;;;;;69.30;33.78;;;;;;;-4.11;87.80;97530.97;5004836;28;20041;-60
2020/12/03 05:20:20;;;;;;;89.85;43.25;;;;;;;-3.41;87.47;97638.63;5003803;28;20057;-61
2020/12/03 05:22:55;;;;;;;86.97;40.85;;;;;;;-3.29;87.26;97636.50;5003116;28;20528;-58
2020/12/03 05:25:23;;;;;;;98.28;45.35;;;;;;;-3.27;86.35;97618.88;5016331;28;20129;-59
2020/12/03 05:27:52;;;;;;;183.68;73.00;;;;;;;-3.61;85.83;97589.84;4983525;28;20036;-60
2020/12/03 05:30:17;;;;;;;298.88;118.82;;;;;;;-3.55;85.06;97572.53;4985029;28;20038;-59
2020/12/03 05:32:42;;;;;;;215.30;87.72;;;;;;;-3.25;85.46;97615.91;4983696;28;20034;-59
2020/12/03 05:35:09;;;;;;;175.02;76.30;;;;;;;-3.51;85.37;97562.81;4985172;28;20034;-59
2020/12/03 05:37:38;;;;;;;126.90;56.33;;;;;;;-2.88;85.25;97627.34;4983511;28;20026;-57
2020/12/03 05:40:05;;;;;;;128.48;57.03;;;;;;;-2.87;84.99;97628.97;4983458;28;20034;-58
2020/12/03 05:42:36;;;;;;;88.43;37.72;;;;;;;-3.21;85.07;97576.38;4985334;28;20027;-58
2020/12/03 05:45:16;;;;;;;63.35;28.38;;;;;;;-2.91;85.50;97627.88;4985169;28;20038;-60
2020/12/03 05:47:43;;;;;;;107.75;43.10;;;;;;;-2.76;85.44;97630.59;4985049;28;20117;-61
2020/12/03 05:50:29;;;;;;;167.32;64.15;;;;;;;-2.67;85.26;97628.94;4985339;28;20457;-59
2020/12/03 05:53:20;;;;;;;142.60;58.45;;;;;;;-2.46;84.41;97630.56;4983355;28;20041;-59
2020/12/03 05:55:46;;;;;;;138.43;53.15;;;;;;;-2.64;84.00;97595.88;4985297;28;20495;-58
2020/12/03 05:58:31;;;;;;;133.13;54.53;;;;;;;-2.36;84.35;97638.72;4985080;28;20038;-60
2020/12/03 06:01:07;;;;;;;157.95;59.67;;;;;;;-2.22;84.31;97634.34;4985815;28;20030;-59
2020/12/03 06:03:58;;;;;;;144.63;57.88;;;;;;;-2.17;84.49;97634.34;4989018;28;20035;-58
2020/12/03 06:06:42;;;;;;;146.45;59.63;;;;;;;-2.07;84.17;97641.63;4987246;28;20030;-59
2020/12/03 06:09:29;;;;;;;149.27;57.33;;;;;;;-1.90;83.79;97644.84;4987086;28;20050;-59
2020/12/03 06:12:16;;;;;;;155.10;62.67;;;;;;;-1.82;83.86;97636.91;4987011;28;20038;-60
2020/12/03 06:15:19;;;;;;;159.50;68.07;;;;;;;-1.72;83.45;97653.19;4988547;28;20054;-62
2020/12/03 06:18:05;;;;;;;119.63;52.30;;;;;;;-1.64;82.70;97638.22;4986723;28;20034;-59
2020/12/03 06:20:58;;;;;;;69.55;33.28;;;;;;;-1.53;82.44;97636.28;4988286;28;20042;-60
2020/12/03 06:23:45;;;;;;;72.13;33.63;;;;;;;-1.38;81.99;97636.19;4987063;28;20510;-60
2020/12/03 06:26:19;;;;;;;84.65;39.13;;;;;;;-1.30;82.15;97638.34;5006485;28;20512;-59
2020/12/03 06:29:03;;;;;;;116.47;47.97;;;;;;;-1.30;82.60;97638.34;5007965;28;20491;-59
2020/12/03 06:31:56;;;;;;;101.47;42.15;;;;;;;-1.19;81.24;97646.16;5006367;28;20199;-60
2020/12/03 06:34:56;;;;;;;88.80;41.05;;;;;;;-1.09;81.10;97645.28;5007574;28;20046;-59
2020/12/03 06:37:37;;;;;;;104.57;44.25;;;;;;;-0.96;80.16;97647.34;5005331;28;20103;-59
2020/12/03 06:40:14;;;;;;;105.57;46.63;;;;;;;-1.09;79.80;97585.50;5007386;28;20045;-59
2020/12/03 06:43:05;;;;;;;112.38;52.55;;;;;;;-0.59;78.33;97644.91;5005987;28;20030;-59
2020/12/03 06:45:43;;;;;;;98.20;44.70;;;;;;;-0.71;79.37;97644.47;4990128;28;20058;-59
2020/12/03 06:48:47;;;;;;;89.38;39.42;;;;;;;-0.48;79.17;97641.00;4986355;28;20042;-60
2020/12/03 06:51:40;;;;;;;82.43;36.53;;;;;;;-0.37;78.79;97648.00;4986249;28;20045;-60
2020/12/03 06:54:21;;;;;;;;;;;;;;;-0.31;78.14;97642.22;4988423;28;20045;-59
2020/12/03 06:57:23;;;;;;;52.15;25.08;;;;;;;-0.27;78.66;97645.19;4986822;28;19922;-59
2020/12/03 07:00:21;;;;;;;51.80;24.88;;;;;;;-0.19;79.32;97644.56;4986496;28;20038;-59
2020/12/03 07:03:05;;;;;;;54.30;25.63;;;;;;;-0.08;79.03;97646.88;5004747;28;20062;-63
2020/12/03 07:05:46;;;;;;;67.63;30.15;;;;;;;0.12;78.51;97655.94;4999175;28;20170;-62
2020/12/03 07:08:31;;;;;;;90.25;39.30;;;;;;;-0.42;78.94;97585.44;5007232;28;20084;-63
2020/12/03 07:11:16;;;;;;;138.20;59.40;;;;;;;-0.05;78.42;97629.19;5005638;28;20515;-61
2020/12/03 07:14:04;;;;;;;269.23;111.25;;;;;;;0.34;77.43;97654.34;5005313;28;20046;-62
2020/12/03 07:17:26;;;;;;;212.75;91.18;;;;;;;0.50;77.02;97646.78;5006769;28;20037;-61
2020/12/03 07:20:00;;;;;;;264.85;113.03;;;;;;;0.51;77.14;97651.94;4965947;28;20069;-60
2020/12/03 07:22:44;;;;;;;208.07;90.72;;;;;;;-2.16;77.25;97212.69;4965867;28;20502;-62
2020/12/03 07:25:11;;;;;;;219.13;92.35;;;;;;;0.48;77.09;97616.28;4969033;28;20035;-60
2020/12/03 07:27:52;;;;;;;130.75;63.38;;;;;;;0.91;76.81;97658.81;4967557;28;20033;-61
2020/12/03 07:30:35;;;;;;;134.93;62.75;;;;;;;1.12;76.50;97660.94;4967294;28;20035;-60
2020/12/03 07:33:09;;;;;;;126.35;59.38;;;;;;;0.99;76.64;97612.59;4965487;28;20046;-62
2020/12/03 07:36:17;;;;;;;135.80;63.65;;;;;;;1.30;77.30;97657.41;4967066;28;20053;-60
2020/12/03 07:38:53;;;;;;;147.98;72.05;;;;;;;1.47;77.25;97649.50;4967755;28;20046;-61
2020/12/03 07:41:22;;;;;;;188.35;78.30;;;;;;;1.55;77.16;97654.28;4967551;28;20039;-61
2020/12/03 07:43:47;;;;;;;154.52;68.55;;;;;;;-0.30;77.26;97343.69;4965828;28;20097;-60
2020/12/03 07:46:28;;;;;;;171.52;72.38;;;;;;;1.80;77.35;97646.78;4970069;28;20026;-60
2020/12/03 07:48:55;;;;;;;176.35;73.18;;;;;;;1.75;78.47;97646.88;4953704;28;20043;-60
2020/12/03 07:51:21;;;;;;;184.88;76.43;;;;;;;1.49;77.98;97603.63;4962428;28;20042;-60
2020/12/03 07:54:16;;;;;;;134.80;52.90;;;;;;;1.94;78.03;97644.91;4970065;28;20039;-63
2020/12/03 07:56:43;;;;;;;116.15;46.72;;;;;;;1.49;79.28;97584.50;4982013;28;20433;-61
2020/12/03 07:59:24;;;;;;;99.13;42.03;;;;;;;2.03;79.08;97649.38;4965146;28;20046;-62
2020/12/03 08:01:59;;;;;;;92.78;37.65;;;;;;;2.07;79.92;97646.84;4954401;28;20041;-62
2020/12/03 08:04:36;;;;;;;94.00;36.97;;;;;;;1.87;80.33;97630.81;4964886;28;20035;-64
2020/12/03 08:07:04;;;;;;;99.47;36.72;;;;;;;2.12;79.01;97641.28;4967660;28;20061;-60
2020/12/03 08:09:44;;;;;;;106.00;41.88;;;;;;;2.23;78.58;97631.78;4967866;28;20034;-60
2020/12/03 08:12:14;;;;;;;92.63;37.15;;;;;;;2.23;78.64;97637.25;4986315;28;20038;-59
2020/12/03 08:14:43;;;;;;;82.43;31.58;;;;;;;2.08;78.88;97629.34;4971902;28;20506;-59
2020/12/03 08:17:17;;;;;;;80.85;30.25;;;;;;;1.39;81.05;97644.72;4964318;28;20034;-64
2020/12/03 08:19:48;;;;;;;94.78;35.42;;;;;;;1.66;82.38;97643.22;4967010;28;20051;-62
2020/12/03 08:22:29;;;;;;;108.00;41.40;;;;;;;1.79;81.18;97642.44;4966851;28;20075;-62
2020/12/03 08:25:33;;;;;;;93.35;34.28;;;;;;;1.90;80.17;97646.63;4965926;28;20349;-63
2020/12/03 08:28:03;;;;;;;;;;;;;;;1.79;80.92;97653.38;4964240;28;20062;-61
2020/12/03 08:30:37;;;;;;;85.55;34.42;;;;;;;1.42;83.03;97644.13;4963708;28;19952;-62
2020/12/03 08:33:24;;;;;;;86.28;34.17;;;;;;;1.31;85.05;97642.66;4965019;28;20058;-62
2020/12/03 08:36:07;;;;;;;107.30;40.95;;;;;;;1.10;85.00;97575.88;4966499;28;20035;-62
2020/12/03 08:38:41;;;;;;;111.63;44.40;;;;;;;1.45;83.20;97681.72;4966292;28;20046;-63
2020/12/03 08:41:13;;;;;;;91.18;34.70;;;;;;;1.83;83.14;97638.00;4964837;28;20474;-62
2020/12/03 08:43:47;;;;;;;79.07;30.48;;;;;;;1.64;82.08;97585.34;4966392;28;20502;-61
2020/12/03 08:46:20;;;;;;;82.95;31.15;;;;;;;2.41;80.92;97639.06;4964732;28;20117;-62
2020/12/03 08:48:46;;;;;;;97.13;38.22;;;;;;;2.02;77.04;97554.88;4964700;28;20043;-62
2020/12/03 08:51:13;;;;;;;86.18;34.13;;;;;;;1.84;77.80;97590.44;4966377;28;20505;-62
2020/12/03 08:53:47;;;;;;;88.03;34.83;;;;;;;1.89;79.55;97636.78;4966884;28;20119;-62
2020/12/03 08:56:16;;;;;;;91.82;35.08;;;;;;;2.12;79.47;97624.91;4966108;28;20541;-61
2020/12/03 08:58:48;;;;;;;106.97;42.88;;;;;;;2.31;78.64;97614.69;4966655;28;20386;-62
2020/12/03 09:01:14;;;;;;;100.13;39.17;;;;;;;2.16;79.02;97602.13;4965779;28;20421;-61
2020/12/03 09:03:40;;;;;;;73.25;29.48;;;;;;;2.55;77.56;97607.06;4961273;28;20039;-63
2020/12/03 09:06:08;;;;;;;75.20;29.60;;;;;;;2.37;76.45;97580.69;4946883;29;20032;-62
2020/12/03 09:08:34;;;;;;;88.57;35.58;;;;;;;2.71;76.45;97611.13;4961502;28;20134;-61
2020/12/03 09:11:01;;;;;;;87.25;35.08;;;;;;;2.57;78.01;97615.78;4962698;28;20117;-62
2020/12/03 09:13:26;;;;;;;66.35;27.83;;;;;;;2.66;75.49;97542.84;4964637;28;20035;-62
2020/12/03 09:15:53;;;;;;;65.43;28.25;;;;;;;3.35;74.56;97605.25;4965967;28;20534;-63
2020/12/03 09:18:19;;;;;;;72.03;30.83;;;;;;;3.30;73.55;97608.13;4965710;28;20059;-62
2020/12/03 09:20:47;;;;;;;81.75;31.85;;;;;;;2.87;74.62;97593.25;4965997;28;20540;-62
2020/12/03 09:23:18;;;;;;;90.80;37.05;;;;;;;2.85;75.15;97595.47;4965979;28;20043;-62
2020/12/03 09:25:44;;;;;;;98.13;39.17;;;;;;;2.42;77.02;97607.91;4965387;28;20037;-62
2020/12/03 09:28:10;;;;;;;102.70;40.40;;;;;;;2.29;77.69;97619.66;4964316;28;20045;-63
2020/12/03 09:30:38;;;;;;;106.32;41.38;;;;;;;2.15;79.24;97602.44;4965390;28;20038;-61
2020/12/03 09:33:07;;;;;;;101.30;39.63;;;;;;;2.15;79.02;97592.28;4965881;28;20045;-61
2020/12/03 09:35:34;;;;;;;110.93;43.40;;;;;;;2.29;79.80;97598.56;4967697;28;20035;-62
2020/12/03 09:38:02;;;;;;;102.97;41.40;;;;;;;2.70;77.77;97587.63;4968415;28;20074;-61
2020/12/03 09:40:29;;;;;;;99.78;42.22;;;;;;;2.84;76.36;97591.97;4969527;28;20026;-62
2020/12/03 09:42:56;;;;;;;107.55;42.28;;;;;;;2.80;75.93;97598.31;4970027;28;20039;-64
2020/12/03 09:45:34;;;;;;;107.70;43.78;;;;;;;2.94;75.64;97588.97;5000693;28;20031;-65
2020/12/03 09:48:03;;;;;;;100.95;39.42;;;;;;;2.86;75.73;97592.44;4969513;28;20118;-61
2020/12/03 09:50:29;;;;;;;88.07;38.17;;;;;;;2.91;75.97;97588.78;4951903;28;20035;-62
2020/12/03 09:52:56;;;;;;;85.85;36.45;;;;;;;3.22;75.20;97583.41;4950013;29;20537;-62
2020/12/03 09:55:21;;;;;;;91.80;39.10;;;;;;;3.03;75.95;97583.59;4950105;29;20314;-61
2020/12/03 09:57:55;;;;;;;85.90;37.10;;;;;;;2.58;74.88;97469.75;4950108;29;20092;-61
2020/12/03 10:00:27;;;;;;;99.47;40.65;;;;;;;3.27;74.97;97564.16;4950714;29;20023;-62
2020/12/03 10:02:58;;;;;;;99.05;39.28;;;;;;;3.33;74.43;97571.94;4950228;29;20054;-62
2020/12/03 10:05:52;;;;;;;92.78;37.97;;;;;;;3.47;74.02;97574.59;4952861;28;20034;-59
2020/12/03 10:08:17;;;;;;;102.07;39.47;;;;;;;3.49;72.84;97564.16;4964301;28;20507;-60
2020/12/03 10:11:09;;;;;;;96.75;38.85;;;;;;;3.59;72.84;97561.16;4961986;28;20041;-59
2020/12/03 10:14:08;;;;;;;88.20;36.42;;;;;;;3.32;73.96;97573.03;4966157;28;20504;-61
2020/12/03 10:16:36;;;;;;;93.90;35.25;;;;;;;2.49;77.19;97548.16;4969248;28;20050;-60
2020/12/03 10:19:09;;;;;;;80.32;33.88;;;;;;;2.80;77.83;97573.72;4966374;28;20061;-60
2020/12/03 10:21:41;;;;;;;72.78;29.92;;;;;;;2.65;76.51;97503.78;4968757;28;20034;-60
2020/12/03 10:24:17;;;;;;;85.53;34.00;;;;;;;2.93;77.13;97565.47;4980831;28;20046;-60
2020/12/03 10:27:03;;;;;;;69.28;31.45;;;;;;;3.11;76.81;97556.28;4967767;28;20414;-61
2020/12/03 10:29:31;;;;;;;75.88;31.63;;;;;;;3.10;75.92;97556.59;4967040;28;20433;-62
2020/12/03 10:31:59;;;;;;;78.30;32.15;;;;;;;2.49;76.49;97471.59;4968493;28;20077;-58
2020/12/03 10:34:26;;;;;;;82.70;33.35;;;;;;;3.18;76.08;97555.84;4968885;28;20482;-60
2020/12/03 10:36:59;;;;;;;79.03;31.83;;;;;;;2.76;76.94;97498.88;4968119;28;20073;-60
2020/12/03 10:39:32;;;;;;;83.70;29.25;;;;;;;1.17;81.50;97409.91;4982681;28;20046;-57
2020/12/03 10:42:00;;;;;;;71.50;28.60;;;;;;;1.49;82.66;97479.97;4949209;28;20050;-63
2020/12/03 10:44:28;;;;;;;75.40;29.02;;;;;;;2.34;82.00;97540.28;4964068;28;20130;-61
2020/12/03 10:47:00;;;;;;;68.47;27.55;;;;;;;2.46;80.46;97527.72;4948718;28;20035;-62
2020/12/03 10:49:27;;;;;;;62.85;27.02;;;;;;;1.68;80.73;97404.25;4947972;28;20043;-61
2020/12/03 10:51:59;;;;;;;69.18;28.55;;;;;;;2.76;79.80;97542.63;4948843;29;20035;-61
2020/12/03 10:54:26;;;;;;;72.75;28.25;;;;;;;1.77;83.13;97510.84;4963768;28;20039;-60
2020/12/03 10:56:52;;;;;;;67.53;28.95;;;;;;;2.24;82.18;97562.34;4948774;29;20487;-61
2020/12/03 10:59:22;;;;;;;73.10;28.02;;;;;;;2.55;81.22;97531.34;4951789;28;20042;-62
2020/12/03 11:01:53;;;;;;;72.97;31.35;;;;;;;2.97;79.21;97527.38;4983338;28;20053;-59
2020/12/03 11:04:20;;;;;;;74.45;29.98;;;;;;;2.06;80.34;97475.81;4968145;28;20523;-58
2020/12/03 11:06:48;;;;;;;65.15;26.83;;;;;;;3.15;78.26;97518.16;4967065;28;20495;-61
2020/12/03 11:09:18;;;;;;;69.03;30.73;;;;;;;3.39;76.08;97469.38;4967846;28;20038;-61
2020/12/03 11:11:45;;;;;;;66.35;30.92;;;;;;;4.07;74.63;97499.81;4966977;28;20039;-57
2020/12/03 11:14:13;;;;;;;62.03;25.40;;;;;;;4.32;72.37;97498.25;4965694;28;20438;-57
2020/12/03 11:16:44;;;;;;;65.95;27.30;;;;;;;2.20;71.65;97146.00;4967622;28;20038;-59
2020/12/03 11:19:15;;;;;;;68.80;27.50;;;;;;;3.36;76.70;97502.84;4968096;28;20054;-60
2020/12/03 11:21:52;;;;;;;69.75;28.38;;;;;;;3.55;76.22;97502.63;4967660;28;20043;-59
2020/12/03 11:24:33;;;;;;;65.60;27.55;;;;;;;3.11;76.42;97429.59;4967777;28;20122;-58
2020/12/03 11:27:03;;;;;;;64.60;27.88;;;;;;;3.55;76.82;97505.38;4967708;28;20081;-60
2020/12/03 11:29:35;;;;;;;69.18;28.52;;;;;;;3.31;77.00;97481.09;4966464;28;20051;-60
2020/12/03 11:32:00;;;;;;;71.97;28.77;;;;;;;1.68;81.95;97357.03;4981910;28;20093;-60
2020/12/03 11:34:39;;;;;;;66.40;27.65;;;;;;;1.85;85.92;97489.09;4967456;28;20577;-60
2020/12/03 11:37:08;;;;;;;66.60;28.02;;;;;;;1.32;85.67;97322.31;4982036;28;20037;-59
2020/12/03 11:39:34;;;;;;;71.53;29.02;;;;;;;1.96;86.57;97476.06;4967978;28;20039;-58
2020/12/03 11:45:19;;;;;;;82.82;32.78;;;;;;;1.93;84.72;97364.69;4966524;28;20047;-58